Time;durP1;ratioP1;P1;durP2;ratioP2;P2;SDS_P1;SDS_P2;PMS_P1;PMS_P2;Temp;Humidity;BMP_temperature;BMP_pressure;BME280_temperature;BME280_humidity;BME280_pressure;Samples;Min_cycle;Max_cycle;Signal;HPM_P1;HPM_P2
2022/04/09 00:01:27;;;;;;;11.20;2.63;;;;;;;;;;5019239;28;20103;-66
2022/04/09 00:03:52;;;;;;;10.60;2.08;;;;;;;;;;5029369;28;20030;-65
2022/04/09 00:06:18;;;;;;;11.63;2.15;;;;;;;;;;5029913;28;20446;-66
2022/04/09 00:08:43;;;;;;;9.57;2.13;;;;;;;;;;5025685;28;20041;-66
2022/04/09 00:11:08;;;;;;;5.45;2.28;;;;;;;;;;5019207;28;20084;-66
2022/04/09 00:13:35;;;;;;;11.80;2.30;;;;;;;;;;5020222;28;20129;-66
2022/04/09 00:16:00;;;;;;;7.78;2.03;;;;;;;;;;5021064;28;20038;-65
2022/04/09 00:18:25;;;;;;;5.07;2.00;;;;;;;;;;5029618;28;20025;-66
2022/04/09 00:20:51;;;;;;;8.80;2.63;;;;;;;;;;5010884;28;20108;-65
2022/04/09 00:23:18;;;;;;;11.00;2.50;;;;;;;;;;5018049;28;20136;-65
2022/04/09 00:25:43;;;;;;;11.57;2.50;;;;;;;;;;5017448;28;20034;-65
2022/04/09 00:28:09;;;;;;;11.43;2.53;;;;;;;;;;5019316;28;20103;-65
2022/04/09 00:30:34;;;;;;;5.85;2.50;;;;;;;;;;5024965;28;20033;-65
2022/04/09 00:33:00;;;;;;;8.98;2.25;;;;;;;;;;5015533;28;20034;-65
2022/04/09 00:35:25;;;;;;;11.73;2.90;;;;;;;;;;5024449;28;20087;-64
2022/04/09 00:37:51;;;;;;;11.32;2.30;;;;;;;;;;5026254;28;20069;-66
2022/04/09 00:40:18;;;;;;;10.77;2.78;;;;;;;;;;5017177;28;20034;-66
2022/04/09 00:42:44;;;;;;;9.13;2.45;;;;;;;;;;5045113;28;20486;-66
2022/04/09 00:45:13;;;;;;;13.98;2.88;;;;;;;;;;5032022;28;20025;-66
2022/04/09 00:47:39;;;;;;;6.25;2.38;;;;;;;;;;5025176;28;20088;-67
2022/04/09 00:50:06;;;;;;;10.98;3.00;;;;;;;;;;5032474;28;20430;-65
2022/04/09 00:52:34;;;;;;;7.45;2.78;;;;;;;;;;5032743;28;20037;-65
2022/04/09 00:55:03;;;;;;;13.43;2.80;;;;;;;;;;5016576;28;20507;-65
2022/04/09 00:57:33;;;;;;;8.07;2.72;;;;;;;;;;5022872;28;20037;-66
2022/04/09 00:59:58;;;;;;;12.18;2.78;;;;;;;;;;5017945;28;20045;-67
2022/04/09 01:02:24;;;;;;;6.07;2.78;;;;;;;;;;5030344;28;20396;-66
2022/04/09 01:04:50;;;;;;;11.32;3.28;;;;;;;;;;5029150;28;20049;-66
2022/04/09 01:07:16;;;;;;;9.60;2.78;;;;;;;;;;5033860;28;20029;-66
2022/04/09 01:09:45;;;;;;;10.82;3.20;;;;;;;;;;5023628;28;20510;-66
2022/04/09 01:12:10;;;;;;;12.60;3.60;;;;;;;;;;5030812;28;20481;-66
2022/04/09 01:14:36;;;;;;;15.50;3.35;;;;;;;;;;5010981;28;20034;-65
2022/04/09 01:17:02;;;;;;;9.55;2.55;;;;;;;;;;5013491;28;20060;-66
2022/04/09 01:19:27;;;;;;;9.93;2.70;;;;;;;;;;5030340;28;20033;-66
2022/04/09 01:21:56;;;;;;;11.02;2.75;;;;;;;;;;5032675;28;20036;-65
2022/04/09 01:24:22;;;;;;;8.38;2.28;;;;;;;;;;5014848;28;20037;-66
2022/04/09 01:26:47;;;;;;;10.32;2.75;;;;;;;;;;5023603;28;20041;-66
2022/04/09 01:29:13;;;;;;;11.20;2.45;;;;;;;;;;5030369;28;21659;-66
2022/04/09 01:31:38;;;;;;;10.32;2.40;;;;;;;;;;5034090;28;20022;-66
2022/04/09 01:34:03;;;;;;;9.10;2.40;;;;;;;;;;5027042;28;20037;-66
2022/04/09 01:36:29;;;;;;;10.32;1.95;;;;;;;;;;5031735;28;20399;-67
2022/04/09 01:38:54;;;;;;;7.38;2.03;;;;;;;;;;5026882;28;20099;-66
2022/04/09 01:41:20;;;;;;;7.88;2.40;;;;;;;;;;5029475;28;20034;-66
2022/04/09 01:43:54;;;;;;;9.15;2.47;;;;;;;;;;5020645;28;20057;-66
2022/04/09 01:46:19;;;;;;;10.27;2.63;;;;;;;;;;5034337;28;20479;-66
2022/04/09 01:48:45;;;;;;;13.98;2.90;;;;;;;;;;5020028;28;20030;-66
2022/04/09 01:51:10;;;;;;;12.07;2.65;;;;;;;;;;5032853;28;20160;-66
2022/04/09 01:53:38;;;;;;;8.80;2.72;;;;;;;;;;5022053;28;20428;-66
2022/04/09 01:56:04;;;;;;;11.18;2.45;;;;;;;;;;5021096;28;20038;-66
2022/04/09 01:58:30;;;;;;;16.48;3.00;;;;;;;;;;5017957;28;20034;-66
2022/04/09 02:00:58;;;;;;;10.82;3.00;;;;;;;;;;5032710;28;20029;-66
2022/04/09 02:03:25;;;;;;;11.05;3.05;;;;;;;;;;5030694;28;20087;-66
2022/04/09 02:05:50;;;;;;;10.50;3.03;;;;;;;;;;5013050;28;20034;-66
2022/04/09 02:08:16;;;;;;;9.10;2.65;;;;;;;;;;5012893;28;20111;-66
2022/04/09 02:10:41;;;;;;;10.00;3.30;;;;;;;;;;5013738;28;20041;-66
2022/04/09 02:13:13;;;;;;;13.57;3.08;;;;;;;;;;5023501;28;20059;-66
2022/04/09 02:15:38;;;;;;;12.98;2.60;;;;;;;;;;5030417;28;20029;-66
2022/04/09 02:18:04;;;;;;;8.20;3.05;;;;;;;;;;5031987;28;20344;-66
2022/04/09 02:20:30;;;;;;;10.25;3.00;;;;;;;;;;5022537;28;20407;-66
2022/04/09 02:22:55;;;;;;;21.15;3.45;;;;;;;;;;5025954;28;20030;-65
2022/04/09 02:25:21;;;;;;;16.95;4.30;;;;;;;;;;5012974;28;20438;-66
2022/04/09 02:27:47;;;;;;;13.50;3.20;;;;;;;;;;5022431;28;20036;-66
2022/04/09 02:30:13;;;;;;;14.18;3.10;;;;;;;;;;5029450;28;20033;-66
2022/04/09 02:32:56;;;;;;;10.13;3.10;;;;;;;;;;5031454;28;20038;-66
2022/04/09 02:35:28;;;;;;;10.20;2.55;;;;;;;;;;5016937;28;20038;-66
2022/04/09 02:37:54;;;;;;;17.35;3.40;;;;;;;;;;5014266;28;20028;-66
2022/04/09 02:40:20;;;;;;;8.50;2.08;;;;;;;;;;5024804;28;20037;-67
2022/04/09 02:42:46;;;;;;;12.63;3.03;;;;;;;;;;5030215;28;20029;-66
2022/04/09 02:45:12;;;;;;;12.77;2.92;;;;;;;;;;5018619;28;20017;-66
2022/04/09 02:47:38;;;;;;;15.23;2.83;;;;;;;;;;5033009;28;20025;-67
2022/04/09 02:50:05;;;;;;;9.57;2.60;;;;;;;;;;5014622;28;20061;-66
2022/04/09 02:52:38;;;;;;;14.93;3.42;;;;;;;;;;5030106;28;20029;-66
2022/04/09 02:55:05;;;;;;;6.45;2.45;;;;;;;;;;5022102;28;20033;-66
2022/04/09 02:57:31;;;;;;;8.02;2.47;;;;;;;;;;5015054;28;20122;-66
2022/04/09 02:59:57;;;;;;;4.47;2.45;;;;;;;;;;5016956;28;20136;-66
2022/04/09 03:02:22;;;;;;;9.45;2.20;;;;;;;;;;5028795;28;20112;-67
2022/04/09 03:04:48;;;;;;;14.35;2.60;;;;;;;;;;5028611;28;20039;-66
2022/04/09 03:07:13;;;;;;;12.05;2.88;;;;;;;;;;5027805;28;20487;-66
2022/04/09 03:09:38;;;;;;;12.20;3.20;;;;;;;;;;5026893;28;20030;-66
2022/04/09 03:12:04;;;;;;;11.73;3.05;;;;;;;;;;5014392;28;20061;-65
2022/04/09 03:14:30;;;;;;;13.82;2.75;;;;;;;;;;5012065;28;20045;-66
2022/04/09 03:16:56;;;;;;;6.35;2.38;;;;;;;;;;5026377;28;20475;-65
2022/04/09 03:19:22;;;;;;;8.63;2.53;;;;;;;;;;5029342;28;20076;-66
2022/04/09 03:21:48;;;;;;;7.47;2.65;;;;;;;;;;5031363;28;20054;-66
2022/04/09 03:24:13;;;;;;;8.52;2.25;;;;;;;;;;5021502;28;20099;-65
2022/04/09 03:26:38;;;;;;;11.98;2.95;;;;;;;;;;5028448;28;20471;-66
2022/04/09 03:29:04;;;;;;;6.82;2.50;;;;;;;;;;5028465;28;20025;-65
2022/04/09 03:31:29;;;;;;;14.18;2.95;;;;;;;;;;5024270;28;20059;-65
2022/04/09 03:33:56;;;;;;;11.18;2.92;;;;;;;;;;5013294;28;20037;-65
2022/04/09 03:36:22;;;;;;;9.07;2.45;;;;;;;;;;5025956;28;20033;-66
2022/04/09 03:38:47;;;;;;;10.95;2.97;;;;;;;;;;5030504;28;20034;-65
2022/04/09 03:41:12;;;;;;;12.98;2.75;;;;;;;;;;5017300;28;20840;-65
2022/04/09 03:43:38;;;;;;;11.75;2.72;;;;;;;;;;5028229;28;20029;-66
2022/04/09 03:46:03;;;;;;;11.95;2.95;;;;;;;;;;5013626;28;20037;-65
2022/04/09 03:48:29;;;;;;;11.75;2.78;;;;;;;;;;5027118;28;20033;-65
2022/04/09 03:50:54;;;;;;;10.50;2.63;;;;;;;;;;5030673;28;20383;-66
2022/04/09 03:53:20;;;;;;;10.13;2.42;;;;;;;;;;5027710;28;20033;-65
2022/04/09 03:55:49;;;;;;;10.73;2.63;;;;;;;;;;5018081;28;20176;-65
2022/04/09 03:58:19;;;;;;;13.82;2.97;;;;;;;;;;5030347;28;20034;-65
2022/04/09 04:00:45;;;;;;;6.88;2.50;;;;;;;;;;5012902;28;20030;-66
2022/04/09 04:03:14;;;;;;;12.52;2.83;;;;;;;;;;5014202;28;20037;-66
2022/04/09 04:05:40;;;;;;;8.27;2.97;;;;;;;;;;5020243;28;20037;-66
2022/04/09 04:08:06;;;;;;;6.13;2.38;;;;;;;;;;5029505;28;20029;-66
2022/04/09 04:10:34;;;;;;;13.45;2.53;;;;;;;;;;5023509;28;20396;-66
2022/04/09 04:13:00;;;;;;;7.75;2.15;;;;;;;;;;5017504;28;20037;-66
2022/04/09 04:15:26;;;;;;;7.22;2.28;;;;;;;;;;5043175;28;20541;-66
2022/04/09 04:17:51;;;;;;;12.43;3.30;;;;;;;;;;5034933;28;20038;-66
2022/04/09 04:20:17;;;;;;;14.02;2.80;;;;;;;;;;5033126;28;20215;-66
2022/04/09 04:22:43;;;;;;;8.95;2.47;;;;;;;;;;5025501;28;20454;-66
2022/04/09 04:25:09;;;;;;;11.07;2.60;;;;;;;;;;5026935;28;20037;-67
2022/04/09 04:27:41;;;;;;;9.57;2.35;;;;;;;;;;5042761;28;20414;-66
2022/04/09 04:30:07;;;;;;;18.02;4.05;;;;;;;;;;5033426;28;20438;-66
2022/04/09 04:32:32;;;;;;;11.80;3.08;;;;;;;;;;5035316;28;20068;-67
2022/04/09 04:34:58;;;;;;;9.30;2.55;;;;;;;;;;5032889;28;20679;-66
2022/04/09 04:37:23;;;;;;;8.98;2.30;;;;;;;;;;5015422;28;20029;-67
2022/04/09 04:39:48;;;;;;;14.00;3.05;;;;;;;;;;5016660;28;20030;-67
2022/04/09 04:42:14;;;;;;;9.25;2.20;;;;;;;;;;5015084;28;20442;-66
2022/04/09 04:44:39;;;;;;;5.15;1.90;;;;;;;;;;5015227;28;20045;-67
2022/04/09 04:47:16;;;;;;;8.05;2.58;;;;;;;;;;5012943;28;20022;-66
2022/04/09 04:49:42;;;;;;;13.30;3.20;;;;;;;;;;5015884;28;20065;-66
2022/04/09 04:52:07;;;;;;;7.53;2.60;;;;;;;;;;5034110;28;20061;-66
2022/04/09 04:54:32;;;;;;;11.98;2.83;;;;;;;;;;5034371;28;20474;-66
2022/04/09 04:56:58;;;;;;;7.28;2.40;;;;;;;;;;5014071;28;20026;-66
2022/04/09 04:59:43;;;;;;;10.07;2.92;;;;;;;;;;5015452;28;20113;-66
2022/04/09 05:02:26;;;;;;;6.38;2.13;;;;;;;;;;5014703;28;20037;-66
2022/04/09 05:04:52;;;;;;;11.32;2.58;;;;;;;;;;5016419;28;20073;-66
2022/04/09 05:07:19;;;;;;;11.20;2.63;;;;;;;;;;5015415;28;20084;-66
2022/04/09 05:09:44;;;;;;;13.68;3.22;;;;;;;;;;5028953;28;20029;-66
2022/04/09 05:12:10;;;;;;;12.52;2.20;;;;;;;;;;5024081;28;20164;-66
2022/04/09 05:14:35;;;;;;;16.98;2.90;;;;;;;;;;5017155;28;20120;-66
2022/04/09 05:17:00;;;;;;;6.18;2.45;;;;;;;;;;5018681;28;20038;-66
2022/04/09 05:19:26;;;;;;;14.27;2.42;;;;;;;;;;5022639;28;20021;-66
2022/04/09 05:21:51;;;;;;;7.05;2.60;;;;;;;;;;5011815;28;20049;-65
2022/04/09 05:24:16;;;;;;;9.75;2.60;;;;;;;;;;5007242;28;20034;-67
2022/04/09 05:26:42;;;;;;;10.88;3.40;;;;;;;;;;4993697;28;20033;-67
2022/04/09 05:29:07;;;;;;;8.15;2.45;;;;;;;;;;5000562;28;20037;-68
2022/04/09 05:31:32;;;;;;;7.30;2.50;;;;;;;;;;5014459;28;20446;-65
2022/04/09 05:33:58;;;;;;;13.63;3.00;;;;;;;;;;5013391;28;20040;-66
2022/04/09 05:36:23;;;;;;;5.18;1.90;;;;;;;;;;5013919;28;20076;-65
2022/04/09 05:38:49;;;;;;;9.23;2.65;;;;;;;;;;5009964;28;20026;-65
2022/04/09 05:41:15;;;;;;;9.48;2.80;;;;;;;;;;5013658;28;20030;-65
2022/04/09 05:43:40;;;;;;;11.18;2.72;;;;;;;;;;5007322;28;20038;-65
2022/04/09 05:46:06;;;;;;;11.98;2.65;;;;;;;;;;5005658;28;20037;-63
2022/04/09 05:48:32;;;;;;;12.80;3.10;;;;;;;;;;5014174;28;20046;-64
2022/04/09 05:50:57;;;;;;;11.63;2.67;;;;;;;;;;5012963;28;20045;-64
2022/04/09 05:53:22;;;;;;;32.92;8.82;;;;;;;;;;5012860;28;20109;-64
2022/04/09 05:55:48;;;;;;;13.25;4.50;;;;;;;;;;5014451;28;20087;-64
2022/04/09 05:58:14;;;;;;;8.93;2.30;;;;;;;;;;5011753;28;20030;-64
2022/04/09 06:00:40;;;;;;;13.88;2.85;;;;;;;;;;5015207;28;20026;-64
2022/04/09 06:03:05;;;;;;;11.80;2.50;;;;;;;;;;4995551;28;20037;-64
2022/04/09 06:05:31;;;;;;;11.75;3.78;;;;;;;;;;5006379;28;20034;-65
2022/04/09 06:07:56;;;;;;;16.55;3.38;;;;;;;;;;4994572;28;20076;-64
2022/04/09 06:10:21;;;;;;;13.98;4.30;;;;;;;;;;4992250;28;20092;-64
2022/04/09 06:12:47;;;;;;;11.70;3.05;;;;;;;;;;4999040;28;20023;-65
2022/04/09 06:15:12;;;;;;;7.88;2.95;;;;;;;;;;5012764;28;20456;-64
2022/04/09 06:17:39;;;;;;;12.13;4.38;;;;;;;;;;5011829;28;20479;-64
2022/04/09 06:20:06;;;;;;;6.90;2.33;;;;;;;;;;5011966;28;20053;-63
2022/04/09 06:22:32;;;;;;;13.15;4.00;;;;;;;;;;5030391;28;20321;-64
2022/04/09 06:24:57;;;;;;;15.30;3.42;;;;;;;;;;5018844;28;20033;-65
2022/04/09 06:27:23;;;;;;;11.55;3.05;;;;;;;;;;5030806;28;20042;-64
2022/04/09 06:29:48;;;;;;;10.90;3.03;;;;;;;;;;5044042;28;20083;-64
2022/04/09 06:32:14;;;;;;;7.15;1.95;;;;;;;;;;5040708;28;20036;-65
2022/04/09 06:34:39;;;;;;;11.48;2.88;;;;;;;;;;5027789;28;20037;-64
2022/04/09 06:37:04;;;;;;;11.55;2.20;;;;;;;;;;5032032;28;20026;-66
2022/04/09 06:39:30;;;;;;;9.65;2.30;;;;;;;;;;5016226;28;20033;-65
2022/04/09 06:41:55;;;;;;;10.25;2.95;;;;;;;;;;5018521;28;20021;-64
2022/04/09 06:44:21;;;;;;;10.23;3.20;;;;;;;;;;5032195;28;20040;-64
2022/04/09 06:46:46;;;;;;;9.70;2.28;;;;;;;;;;5030985;28;20026;-64
2022/04/09 06:49:13;;;;;;;14.45;3.95;;;;;;;;;;5031823;28;20025;-64
2022/04/09 06:51:39;;;;;;;8.63;2.25;;;;;;;;;;5029835;28;20041;-65
2022/04/09 06:54:05;;;;;;;7.32;2.20;;;;;;;;;;5019809;28;20037;-64
2022/04/09 06:56:31;;;;;;;10.15;3.22;;;;;;;;;;5029494;28;20033;-63
2022/04/09 06:58:56;;;;;;;9.20;2.75;;;;;;;;;;5030337;28;20032;-63
2022/04/09 07:01:21;;;;;;;8.10;2.67;;;;;;;;;;5025344;28;20030;-64
2022/04/09 07:03:47;;;;;;;5.85;2.58;;;;;;;;;;5012666;28;20076;-64
2022/04/09 07:06:14;;;;;;;10.40;2.67;;;;;;;;;;5012300;28;20057;-65
2022/04/09 07:08:40;;;;;;;11.13;2.13;;;;;;;;;;5026207;28;20079;-64
2022/04/09 07:11:05;;;;;;;9.48;2.55;;;;;;;;;;5034241;28;20451;-64
2022/04/09 07:13:31;;;;;;;8.35;2.28;;;;;;;;;;5026361;28;20053;-65
2022/04/09 07:15:57;;;;;;;8.60;2.65;;;;;;;;;;5030341;28;20034;-64
2022/04/09 07:18:22;;;;;;;10.20;2.08;;;;;;;;;;5025454;28;20044;-64
2022/04/09 07:20:47;;;;;;;10.02;2.38;;;;;;;;;;5032414;28;20411;-64
2022/04/09 07:23:13;;;;;;;12.07;2.72;;;;;;;;;;5030968;28;20037;-64
2022/04/09 07:25:38;;;;;;;12.43;2.95;;;;;;;;;;5035883;28;20059;-64
2022/04/09 07:28:05;;;;;;;6.13;2.15;;;;;;;;;;5050382;28;20067;-64
2022/04/09 07:30:30;;;;;;;9.10;2.20;;;;;;;;;;5033615;28;20065;-64
2022/04/09 07:32:57;;;;;;;9.70;3.40;;;;;;;;;;5030830;28;20068;-64
2022/04/09 07:35:22;;;;;;;6.90;2.17;;;;;;;;;;5024930;28;20497;-64
2022/04/09 07:37:50;;;;;;;10.85;2.53;;;;;;;;;;5021281;28;20050;-63
2022/04/09 07:40:18;;;;;;;6.20;2.13;;;;;;;;;;5011374;28;20037;-64
2022/04/09 07:42:44;;;;;;;8.93;2.40;;;;;;;;;;5012333;28;20038;-64
2022/04/09 07:45:12;;;;;;;7.85;2.15;;;;;;;;;;5010292;28;20445;-64
2022/04/09 07:47:37;;;;;;;8.18;2.50;;;;;;;;;;5018777;28;20056;-63
2022/04/09 07:50:06;;;;;;;5.38;1.90;;;;;;;;;;5030123;28;20061;-63
2022/04/09 07:52:32;;;;;;;4.40;1.75;;;;;;;;;;5025426;28;20522;-63
2022/04/09 07:54:58;;;;;;;10.13;2.20;;;;;;;;;;5029832;28;20091;-64
2022/04/09 07:57:24;;;;;;;7.53;2.53;;;;;;;;;;5019857;28;20175;-65
2022/04/09 07:59:50;;;;;;;9.55;2.50;;;;;;;;;;5023259;28;20459;-65
2022/04/09 08:02:15;;;;;;;6.40;2.17;;;;;;;;;;5010872;28;20121;-65
2022/04/09 08:04:40;;;;;;;6.75;2.17;;;;;;;;;;5010768;28;20037;-65
2022/04/09 08:07:06;;;;;;;7.60;2.15;;;;;;;;;;5027533;28;20459;-66
2022/04/09 08:09:31;;;;;;;6.40;1.83;;;;;;;;;;5020538;28;20646;-65
2022/04/09 08:11:56;;;;;;;8.25;2.17;;;;;;;;;;5020392;28;20112;-66
2022/04/09 08:14:22;;;;;;;8.25;2.03;;;;;;;;;;5018086;28;20040;-66
2022/04/09 08:16:47;;;;;;;7.18;2.50;;;;;;;;;;5030910;28;20429;-65
2022/04/09 08:19:22;;;;;;;6.65;2.13;;;;;;;;;;5026316;28;20380;-64
2022/04/09 08:21:48;;;;;;;6.05;2.33;;;;;;;;;;5011512;28;20054;-64
2022/04/09 08:24:13;;;;;;;8.13;1.65;;;;;;;;;;5013055;28;20084;-64
2022/04/09 08:26:39;;;;;;;6.43;1.98;;;;;;;;;;5018152;28;20044;-64
2022/04/09 08:29:05;;;;;;;4.72;1.65;;;;;;;;;;5016273;28;20103;-64
2022/04/09 08:31:31;;;;;;;5.03;1.70;;;;;;;;;;5020019;28;20173;-64
2022/04/09 08:33:57;;;;;;;6.43;1.75;;;;;;;;;;5031171;28;20530;-65
2022/04/09 08:36:22;;;;;;;10.48;2.20;;;;;;;;;;5022450;28;20056;-64
2022/04/09 08:38:47;;;;;;;9.63;2.05;;;;;;;;;;5018435;28;20394;-65
2022/04/09 08:41:14;;;;;;;10.60;2.05;;;;;;;;;;5030102;28;20505;-64
2022/04/09 08:43:40;;;;;;;5.97;1.98;;;;;;;;;;5031311;28;20033;-64
2022/04/09 08:46:05;;;;;;;5.88;1.88;;;;;;;;;;5030341;28;20044;-64
2022/04/09 08:48:31;;;;;;;10.45;3.00;;;;;;;;;;5030192;28;20864;-63
2022/04/09 08:50:57;;;;;;;8.88;2.55;;;;;;;;;;5029690;28;20040;-63
2022/04/09 08:53:23;;;;;;;7.28;2.13;;;;;;;;;;5025552;28;20032;-63
2022/04/09 08:55:50;;;;;;;11.40;2.25;;;;;;;;;;5011518;28;20403;-62
2022/04/09 08:58:15;;;;;;;6.00;2.30;;;;;;;;;;5013822;28;20040;-62
2022/04/09 09:00:42;;;;;;;6.43;2.10;;;;;;;;;;5031235;28;20029;-63
2022/04/09 09:03:11;;;;;;;9.35;2.33;;;;;;;;;;5021568;28;20040;-64
2022/04/09 09:05:39;;;;;;;8.38;2.13;;;;;;;;;;5032039;28;20088;-63
2022/04/09 09:08:06;;;;;;;8.18;2.00;;;;;;;;;;5028782;28;20039;-64
2022/04/09 09:10:32;;;;;;;9.05;2.40;;;;;;;;;;5025365;28;20446;-64
2022/04/09 09:12:59;;;;;;;9.48;1.98;;;;;;;;;;5018413;28;20057;-62
2022/04/09 09:15:25;;;;;;;9.80;2.45;;;;;;;;;;5031446;28;20040;-63
2022/04/09 09:17:58;;;;;;;6.00;1.73;;;;;;;;;;5029978;28;20025;-64
2022/04/09 09:20:24;;;;;;;4.90;1.50;;;;;;;;;;5030883;28;20064;-63
2022/04/09 09:22:50;;;;;;;3.95;1.90;;;;;;;;;;5015015;28;20503;-63
2022/04/09 09:25:17;;;;;;;5.63;1.83;;;;;;;;;;5013276;28;20061;-63
2022/04/09 09:27:42;;;;;;;5.40;1.60;;;;;;;;;;5014637;28;20464;-63
2022/04/09 09:30:11;;;;;;;5.20;1.60;;;;;;;;;;5031463;28;20037;-63
2022/04/09 09:32:38;;;;;;;8.90;2.10;;;;;;;;;;5030671;28;20594;-62
2022/04/09 09:35:05;;;;;;;8.82;1.80;;;;;;;;;;5027939;28;20030;-63
2022/04/09 09:37:31;;;;;;;2.78;1.10;;;;;;;;;;5025058;28;20393;-64
2022/04/09 09:39:57;;;;;;;1.75;1.08;;;;;;;;;;5023761;28;20033;-63
2022/04/09 09:42:25;;;;;;;2.00;0.80;;;;;;;;;;5029124;28;20444;-63
2022/04/09 09:44:51;;;;;;;1.23;1.00;;;;;;;;;;5028091;28;20037;-62
2022/04/09 09:47:17;;;;;;;3.22;1.02;;;;;;;;;;5032189;28;20025;-62
2022/04/09 09:49:56;;;;;;;1.98;0.95;;;;;;;;;;5023709;28;20113;-63
2022/04/09 09:52:26;;;;;;;3.45;1.10;;;;;;;;;;5033000;28;20036;-63
2022/04/09 09:55:04;;;;;;;1.20;1.10;;;;;;;;;;5031934;28;20033;-62
2022/04/09 09:57:31;;;;;;;2.28;1.30;;;;;;;;;;5033217;28;20380;-63
2022/04/09 09:59:59;;;;;;;2.40;1.20;;;;;;;;;;5025001;28;20025;-61
2022/04/09 10:02:25;;;;;;;5.22;1.80;;;;;;;;;;5032700;28;20033;-63
2022/04/09 10:04:54;;;;;;;2.60;1.42;;;;;;;;;;5017569;28;20026;-63
2022/04/09 10:07:21;;;;;;;5.35;1.80;;;;;;;;;;5032019;28;20029;-63
2022/04/09 10:09:49;;;;;;;2.65;1.42;;;;;;;;;;5012406;28;20044;-62
2022/04/09 10:12:18;;;;;;;1.90;1.20;;;;;;;;;;5012056;28;20037;-63
2022/04/09 10:14:49;;;;;;;4.47;1.80;;;;;;;;;;5030951;28;20402;-63
2022/04/09 10:17:19;;;;;;;2.45;1.45;;;;;;;;;;5031985;28;20036;-63
2022/04/09 10:19:48;;;;;;;2.13;1.40;;;;;;;;;;5032503;28;20033;-64
2022/04/09 10:22:14;;;;;;;5.60;1.98;;;;;;;;;;5031714;28;20037;-62
2022/04/09 10:24:40;;;;;;;8.35;2.40;;;;;;;;;;5021335;28;20033;-62
2022/04/09 10:27:08;;;;;;;7.45;1.67;;;;;;;;;;5033381;28;20037;-62
2022/04/09 10:29:49;;;;;;;4.35;2.03;;;;;;;;;;5029941;28;20376;-62
2022/04/09 10:32:43;;;;;;;3.42;1.60;;;;;;;;;;5024405;28;20430;-62
2022/04/09 10:35:29;;;;;;;6.70;2.20;;;;;;;;;;5032769;28;20030;-63
2022/04/09 10:38:06;;;;;;;6.82;2.17;;;;;;;;;;5014292;28;20030;-61
2022/04/09 10:40:35;;;;;;;0.68;0.68;;;;;;;;;;5032420;28;20041;-62
2022/04/09 10:43:01;;;;;;;0.77;0.47;;;;;;;;;;5024492;28;20057;-63
2022/04/09 10:45:30;;;;;;;3.22;0.80;;;;;;;;;;5032186;28;20071;-64
2022/04/09 10:48:14;;;;;;;1.42;0.90;;;;;;;;;;5031003;28;20029;-63
2022/04/09 10:50:57;;;;;;;1.98;1.02;;;;;;;;;;5031510;28;20041;-63
2022/04/09 10:53:24;;;;;;;2.08;1.00;;;;;;;;;;5029929;28;20025;-66
2022/04/09 10:56:24;;;;;;;0.80;0.80;;;;;;;;;;5032878;28;20041;-65
2022/04/09 10:59:08;;;;;;;2.35;1.05;;;;;;;;;;5032092;28;20028;-64
2022/04/09 11:01:46;;;;;;;1.80;1.10;;;;;;;;;;5031842;28;20060;-66
2022/04/09 11:04:27;;;;;;;2.42;1.05;;;;;;;;;;5020750;28;20522;-64
2022/04/09 11:07:17;;;;;;;2.90;1.30;;;;;;;;;;5012323;28;20068;-64
2022/04/09 11:09:53;;;;;;;5.03;1.60;;;;;;;;;;5025142;28;20233;-65
2022/04/09 11:12:28;;;;;;;4.20;1.70;;;;;;;;;;5031458;28;20426;-64
2022/04/09 11:14:58;;;;;;;4.70;2.38;;;;;;;;;;5016752;28;20048;-66
2022/04/09 11:17:31;;;;;;;4.20;1.70;;;;;;;;;;5019737;28;20034;-67
2022/04/09 11:20:01;;;;;;;2.40;1.55;;;;;;;;;;5015760;28;20045;-65
2022/04/09 11:22:52;;;;;;;3.35;1.10;;;;;;;;;;5010274;28;20042;-64
2022/04/09 11:25:28;;;;;;;2.67;1.40;;;;;;;;;;5030364;28;20033;-65
2022/04/09 11:28:13;;;;;;;2.55;1.08;;;;;;;;;;5032093;28;20480;-64
2022/04/09 11:31:01;;;;;;;3.60;1.33;;;;;;;;;;5010498;28;20042;-64
2022/04/09 11:33:28;;;;;;;3.15;1.25;;;;;;;;;;5029004;28;20026;-64
2022/04/09 11:35:54;;;;;;;5.35;1.20;;;;;;;;;;5030128;28;20045;-64
2022/04/09 11:38:24;;;;;;;1.85;1.10;;;;;;;;;;5020190;28;20119;-63
2022/04/09 11:40:49;;;;;;;1.77;1.00;;;;;;;;;;5026889;28;20103;-64
2022/04/09 11:43:19;;;;;;;3.47;1.45;;;;;;;;;;5031519;28;20033;-65
2022/04/09 11:45:45;;;;;;;5.68;1.85;;;;;;;;;;5016066;28;20037;-64
2022/04/09 11:48:16;;;;;;;2.60;1.17;;;;;;;;;;5016369;28;20050;-64
2022/04/09 11:50:42;;;;;;;5.10;1.50;;;;;;;;;;5010988;28;20037;-64
2022/04/09 11:53:22;;;;;;;6.35;1.60;;;;;;;;;;5013208;28;20061;-64
2022/04/09 11:55:48;;;;;;;3.00;1.40;;;;;;;;;;4995201;28;20468;-65
2022/04/09 11:58:15;;;;;;;3.70;1.27;;;;;;;;;;5028190;28;20033;-66
2022/04/09 12:00:44;;;;;;;2.92;1.10;;;;;;;;;;5025420;28;20480;-67
2022/04/09 12:03:10;;;;;;;3.28;1.30;;;;;;;;;;5028232;28;20083;-67
2022/04/09 12:05:46;;;;;;;1.92;1.13;;;;;;;;;;5025272;28;20137;-68
2022/04/09 12:08:13;;;;;;;2.63;1.17;;;;;;;;;;5016213;28;20036;-69
2022/04/09 12:10:51;;;;;;;1.00;0.82;;;;;;;;;;5011156;28;20491;-67
2022/04/09 12:13:26;;;;;;;1.55;1.00;;;;;;;;;;5014333;28;20026;-67
2022/04/09 12:15:52;;;;;;;3.75;1.48;;;;;;;;;;5023063;28;20041;-68
2022/04/09 12:18:25;;;;;;;1.83;1.00;;;;;;;;;;5031447;28;20394;-70
2022/04/09 12:20:51;;;;;;;2.25;1.02;;;;;;;;;;5029018;28;20145;-69
2022/04/09 12:23:28;;;;;;;4.22;1.30;;;;;;;;;;5023834;28;20104;-70
2022/04/09 12:25:53;;;;;;;2.30;1.00;;;;;;;;;;5011807;28;20057;-70
2022/04/09 12:28:31;;;;;;;3.33;0.95;;;;;;;;;;5019761;28;20057;-74
2022/04/09 12:30:57;;;;;;;3.42;1.13;;;;;;;;;;5032007;28;20117;-71
2022/04/09 12:33:23;;;;;;;5.18;1.60;;;;;;;;;;5021256;28;20117;-69
2022/04/09 12:35:51;;;;;;;1.13;0.90;;;;;;;;;;5010507;28;20695;-67
2022/04/09 12:38:34;;;;;;;2.20;1.10;;;;;;;;;;5016566;28;20108;-69
2022/04/09 12:41:01;;;;;;;3.10;1.20;;;;;;;;;;5031739;28;20068;-68
2022/04/09 12:43:35;;;;;;;4.05;1.20;;;;;;;;;;5034142;28;20535;-68
2022/04/09 12:46:05;;;;;;;2.55;1.02;;;;;;;;;;5035288;28;20045;-67
2022/04/09 12:48:39;;;;;;;4.10;1.43;;;;;;;;;;5029465;28;20434;-66
2022/04/09 12:51:05;;;;;;;2.47;1.15;;;;;;;;;;5033453;28;20026;-65
2022/04/09 12:53:30;;;;;;;3.13;1.50;;;;;;;;;;5023151;28;20387;-64
2022/04/09 12:55:56;;;;;;;3.58;1.42;;;;;;;;;;5015093;28;20080;-63
2022/04/09 12:58:21;;;;;;;4.15;1.60;;;;;;;;;;5020679;28;20454;-64
2022/04/09 13:00:47;;;;;;;4.43;1.60;;;;;;;;;;5023514;28;20234;-64
2022/04/09 13:03:13;;;;;;;4.70;1.48;;;;;;;;;;5036472;28;20044;-66
2022/04/09 13:05:41;;;;;;;4.05;1.80;;;;;;;;;;5017586;28;20030;-66
2022/04/09 13:08:06;;;;;;;5.57;1.58;;;;;;;;;;5020156;28;20091;-65
2022/04/09 13:10:34;;;;;;;2.67;1.30;;;;;;;;;;5032619;28;20033;-65
2022/04/09 13:13:00;;;;;;;2.28;1.20;;;;;;;;;;5034137;28;20041;-65
2022/04/09 13:15:25;;;;;;;3.67;1.10;;;;;;;;;;5034263;28;20033;-65
2022/04/09 13:17:51;;;;;;;1.77;0.80;;;;;;;;;;5031987;28;20107;-66
2022/04/09 13:20:17;;;;;;;1.08;0.73;;;;;;;;;;5033919;28;20491;-66
2022/04/09 13:22:43;;;;;;;1.17;0.73;;;;;;;;;;5023614;28;20026;-67
2022/04/09 13:25:08;;;;;;;1.70;0.80;;;;;;;;;;5029170;28;20029;-66
2022/04/09 13:27:34;;;;;;;2.63;1.13;;;;;;;;;;5033035;28;20036;-66
2022/04/09 13:30:00;;;;;;;1.85;1.05;;;;;;;;;;5034133;28;20040;-66
2022/04/09 13:32:26;;;;;;;3.10;1.10;;;;;;;;;;5033547;28;20040;-66
2022/04/09 13:34:52;;;;;;;0.80;0.80;;;;;;;;;;5032226;28;20123;-67
2022/04/09 13:37:20;;;;;;;3.13;1.10;;;;;;;;;;5034501;28;20439;-66
2022/04/09 13:39:45;;;;;;;5.00;1.83;;;;;;;;;;5033052;28;20418;-66
2022/04/09 13:42:11;;;;;;;2.60;1.38;;;;;;;;;;5032857;28;20083;-67
2022/04/09 13:44:43;;;;;;;3.47;1.30;;;;;;;;;;5033543;28;20026;-66
2022/04/09 13:47:10;;;;;;;3.75;1.58;;;;;;;;;;5032474;28;20037;-66
2022/04/09 13:49:35;;;;;;;1.58;0.93;;;;;;;;;;5033483;28;20036;-66
2022/04/09 13:52:03;;;;;;;1.88;0.93;;;;;;;;;;5034486;28;20104;-65
2022/04/09 13:54:28;;;;;;;2.33;1.20;;;;;;;;;;5034061;28;20108;-66
2022/04/09 13:57:09;;;;;;;3.28;1.40;;;;;;;;;;5033288;28;20063;-66
2022/04/09 13:59:34;;;;;;;3.63;1.27;;;;;;;;;;5033208;28;20056;-66
2022/04/09 14:02:03;;;;;;;3.00;1.10;;;;;;;;;;5034017;28;20459;-66
2022/04/09 14:04:29;;;;;;;0.85;0.80;;;;;;;;;;5034875;28;20033;-66
2022/04/09 14:06:54;;;;;;;3.20;1.08;;;;;;;;;;5032840;28;20036;-65
2022/04/09 14:09:19;;;;;;;1.33;0.85;;;;;;;;;;5027964;28;20523;-66
2022/04/09 14:11:45;;;;;;;2.45;1.10;;;;;;;;;;5013711;28;20460;-65
2022/04/09 14:14:12;;;;;;;2.95;1.10;;;;;;;;;;5021817;28;20029;-63
2022/04/09 14:16:38;;;;;;;1.77;1.10;;;;;;;;;;5021159;28;20131;-64
2022/04/09 14:19:03;;;;;;;2.28;1.25;;;;;;;;;;5018315;28;20118;-63
2022/04/09 14:21:29;;;;;;;2.45;1.30;;;;;;;;;;5014534;28;20069;-63
2022/04/09 14:23:55;;;;;;;2.67;1.50;;;;;;;;;;4996570;28;20332;-63
2022/04/09 14:26:20;;;;;;;4.70;1.50;;;;;;;;;;5014466;28;20475;-64
2022/04/09 14:28:45;;;;;;;3.28;1.40;;;;;;;;;;5032182;28;20531;-65
2022/04/09 14:31:11;;;;;;;3.33;1.52;;;;;;;;;;5033166;28;20037;-64
2022/04/09 14:33:37;;;;;;;2.47;1.30;;;;;;;;;;5032122;28;20037;-65
2022/04/09 14:36:03;;;;;;;4.50;1.60;;;;;;;;;;5030523;28;20418;-64
2022/04/09 14:38:28;;;;;;;2.42;1.25;;;;;;;;;;5025667;28;20037;-64
2022/04/09 14:40:54;;;;;;;3.08;1.20;;;;;;;;;;5032181;28;20643;-63